Flight Briefing for CPX103

Departure Arrival
Ted Stevens Anchorage International Airport (PANC)
Click to view FAA NOTAMS
Huntsville International Airport (KHSV)
Click to view FAA NOTAMS
Departure Time Arrival Time
N/A N/A
Aircraft Distance
B747-400BCF 2850nm
Departure METAR Arrival METAR
PANC 260953Z 00000KT 10SM FEW250 02/M01 A3014 RMK AO2 SLP207 T00171011 KHSV 260953Z AUTO 02012KT 10SM OVC020 09/05 A3015 RMK AO2 SLP208 T00940050
Suggested Route
TED YESKA NCA13 YXY J515 YYE J537 YPE J601 XD YWV J475 VLN J483 MOT ABR Q19 DSM J45 IRK FAM J151 VUZ


View recent IFR Routes data
Notes



Charts and Procedures

Charts for PANC
No chart available
Charts for KHSV
No chart available

Windy.com Weather Map